sensor_id;sensor_type;location;lat;lon;timestamp;P1;durP1;ratioP1;P2;durP2;ratioP2
13891;SDS011;7016;48.172;8.058;2022-12-18T00:00:55;40.60;;;17.17;;
13891;SDS011;7016;48.172;8.058;2022-12-18T00:03:21;37.20;;;16.50;;
13891;SDS011;7016;48.172;8.058;2022-12-18T00:05:50;36.88;;;16.40;;
13891;SDS011;7016;48.172;8.058;2022-12-18T00:08:16;36.28;;;16.35;;
13891;SDS011;7016;48.172;8.058;2022-12-18T00:10:42;31.33;;;15.07;;
13891;SDS011;7016;48.172;8.058;2022-12-18T00:13:09;34.72;;;15.50;;
13891;SDS011;7016;48.172;8.058;2022-12-18T00:15:35;33.50;;;15.02;;
13891;SDS011;7016;48.172;8.058;2022-12-18T00:18:02;37.80;;;15.88;;
13891;SDS011;7016;48.172;8.058;2022-12-18T00:20:28;33.65;;;14.98;;
13891;SDS011;7016;48.172;8.058;2022-12-18T00:22:54;36.05;;;17.02;;
13891;SDS011;7016;48.172;8.058;2022-12-18T00:25:20;39.45;;;15.88;;
13891;SDS011;7016;48.172;8.058;2022-12-18T00:27:46;36.85;;;15.63;;
13891;SDS011;7016;48.172;8.058;2022-12-18T00:30:11;36.47;;;16.27;;
13891;SDS011;7016;48.172;8.058;2022-12-18T00:32:37;35.50;;;14.20;;
13891;SDS011;7016;48.172;8.058;2022-12-18T00:35:04;27.88;;;13.30;;
13891;SDS011;7016;48.172;8.058;2022-12-18T00:37:30;33.30;;;14.85;;
13891;SDS011;7016;48.172;8.058;2022-12-18T00:39:56;38.55;;;14.57;;
13891;SDS011;7016;48.172;8.058;2022-12-18T00:42:21;31.52;;;14.75;;
13891;SDS011;7016;48.172;8.058;2022-12-18T00:45:06;28.80;;;13.27;;
13891;SDS011;7016;48.172;8.058;2022-12-18T00:47:31;31.98;;;13.82;;
13891;SDS011;7016;48.172;8.058;2022-12-18T00:49:57;31.58;;;14.68;;
13891;SDS011;7016;48.172;8.058;2022-12-18T00:52:23;32.42;;;13.57;;
13891;SDS011;7016;48.172;8.058;2022-12-18T00:54:49;27.17;;;12.82;;
13891;SDS011;7016;48.172;8.058;2022-12-18T00:57:14;33.15;;;15.18;;
13891;SDS011;7016;48.172;8.058;2022-12-18T00:59:40;33.63;;;14.82;;
13891;SDS011;7016;48.172;8.058;2022-12-18T01:02:06;36.35;;;15.50;;
13891;SDS011;7016;48.172;8.058;2022-12-18T01:04:32;34.83;;;15.07;;
13891;SDS011;7016;48.172;8.058;2022-12-18T01:06:58;27.98;;;13.48;;
13891;SDS011;7016;48.172;8.058;2022-12-18T01:09:23;34.35;;;13.57;;
13891;SDS011;7016;48.172;8.058;2022-12-18T01:11:49;30.60;;;13.20;;
13891;SDS011;7016;48.172;8.058;2022-12-18T01:14:15;26.63;;;12.70;;
13891;SDS011;7016;48.172;8.058;2022-12-18T01:16:41;27.77;;;13.20;;
13891;SDS011;7016;48.172;8.058;2022-12-18T01:19:06;31.38;;;14.13;;
13891;SDS011;7016;48.172;8.058;2022-12-18T01:21:32;27.70;;;13.40;;
13891;SDS011;7016;48.172;8.058;2022-12-18T01:23:58;27.05;;;12.90;;
13891;SDS011;7016;48.172;8.058;2022-12-18T01:26:25;30.65;;;13.32;;
13891;SDS011;7016;48.172;8.058;2022-12-18T01:28:55;30.85;;;13.57;;
13891;SDS011;7016;48.172;8.058;2022-12-18T01:31:25;35.20;;;14.20;;
13891;SDS011;7016;48.172;8.058;2022-12-18T01:33:53;37.97;;;13.35;;
13891;SDS011;7016;48.172;8.058;2022-12-18T01:36:29;28.02;;;12.93;;
13891;SDS011;7016;48.172;8.058;2022-12-18T01:39:00;36.60;;;13.13;;
13891;SDS011;7016;48.172;8.058;2022-12-18T01:41:28;39.80;;;15.80;;
13891;SDS011;7016;48.172;8.058;2022-12-18T01:47:20;27.92;;;12.57;;
13891;SDS011;7016;48.172;8.058;2022-12-18T01:49:55;28.08;;;12.45;;
13891;SDS011;7016;48.172;8.058;2022-12-18T01:52:24;26.80;;;12.05;;
13891;SDS011;7016;48.172;8.058;2022-12-18T01:54:52;23.92;;;10.95;;
13891;SDS011;7016;48.172;8.058;2022-12-18T01:57:19;25.15;;;11.60;;
13891;SDS011;7016;48.172;8.058;2022-12-18T01:59:46;27.73;;;12.38;;
13891;SDS011;7016;48.172;8.058;2022-12-18T02:02:15;28.13;;;11.90;;
13891;SDS011;7016;48.172;8.058;2022-12-18T02:04:42;25.33;;;11.68;;
13891;SDS011;7016;48.172;8.058;2022-12-18T02:09:46;28.55;;;11.88;;
13891;SDS011;7016;48.172;8.058;2022-12-18T02:17:18;26.70;;;11.27;;
13891;SDS011;7016;48.172;8.058;2022-12-18T02:28:13;23.83;;;11.15;;
13891;SDS011;7016;48.172;8.058;2022-12-18T02:30:42;25.00;;;11.45;;
13891;SDS011;7016;48.172;8.058;2022-12-18T02:33:10;27.90;;;11.43;;
13891;SDS011;7016;48.172;8.058;2022-12-18T02:35:38;22.35;;;10.90;;
13891;SDS011;7016;48.172;8.058;2022-12-18T02:38:07;25.45;;;11.95;;
13891;SDS011;7016;48.172;8.058;2022-12-18T02:40:33;27.15;;;11.95;;
13891;SDS011;7016;48.172;8.058;2022-12-18T02:43:11;25.25;;;11.27;;
13891;SDS011;7016;48.172;8.058;2022-12-18T02:45:55;25.05;;;11.93;;
13891;SDS011;7016;48.172;8.058;2022-12-18T02:48:27;24.85;;;11.13;;
13891;SDS011;7016;48.172;8.058;2022-12-18T02:53:43;24.83;;;11.95;;
13891;SDS011;7016;48.172;8.058;2022-12-18T02:56:17;23.85;;;11.18;;
13891;SDS011;7016;48.172;8.058;2022-12-18T02:58:56;25.73;;;11.93;;
13891;SDS011;7016;48.172;8.058;2022-12-18T03:01:43;29.58;;;12.00;;
13891;SDS011;7016;48.172;8.058;2022-12-18T03:04:38;25.00;;;11.65;;
13891;SDS011;7016;48.172;8.058;2022-12-18T03:09:42;24.90;;;10.90;;
13891;SDS011;7016;48.172;8.058;2022-12-18T03:12:18;26.85;;;11.30;;
13891;SDS011;7016;48.172;8.058;2022-12-18T03:17:51;21.90;;;10.30;;
13891;SDS011;7016;48.172;8.058;2022-12-18T03:20:22;22.27;;;10.63;;
13891;SDS011;7016;48.172;8.058;2022-12-18T03:22:51;23.52;;;10.35;;
13891;SDS011;7016;48.172;8.058;2022-12-18T03:25:23;23.20;;;10.63;;
13891;SDS011;7016;48.172;8.058;2022-12-18T03:27:54;25.20;;;11.25;;
13891;SDS011;7016;48.172;8.058;2022-12-18T03:30:22;26.77;;;11.20;;
13891;SDS011;7016;48.172;8.058;2022-12-18T03:35:34;25.20;;;11.30;;
13891;SDS011;7016;48.172;8.058;2022-12-18T03:38:03;25.95;;;11.85;;
13891;SDS011;7016;48.172;8.058;2022-12-18T03:40:31;25.58;;;11.75;;
13891;SDS011;7016;48.172;8.058;2022-12-18T03:43:10;22.13;;;10.52;;
13891;SDS011;7016;48.172;8.058;2022-12-18T03:45:48;23.30;;;10.93;;
13891;SDS011;7016;48.172;8.058;2022-12-18T03:48:33;23.77;;;10.98;;
13891;SDS011;7016;48.172;8.058;2022-12-18T03:51:09;23.83;;;10.90;;
13891;SDS011;7016;48.172;8.058;2022-12-18T03:56:18;21.77;;;10.75;;
13891;SDS011;7016;48.172;8.058;2022-12-18T03:58:46;27.55;;;11.15;;
13891;SDS011;7016;48.172;8.058;2022-12-18T04:01:14;22.45;;;10.68;;
13891;SDS011;7016;48.172;8.058;2022-12-18T04:03:41;23.85;;;10.48;;
13891;SDS011;7016;48.172;8.058;2022-12-18T04:06:11;23.55;;;11.43;;
13891;SDS011;7016;48.172;8.058;2022-12-18T04:08:37;25.73;;;11.57;;
13891;SDS011;7016;48.172;8.058;2022-12-18T04:11:04;24.45;;;11.02;;
13891;SDS011;7016;48.172;8.058;2022-12-18T04:13:37;21.40;;;10.50;;
13891;SDS011;7016;48.172;8.058;2022-12-18T04:16:03;22.90;;;11.25;;
13891;SDS011;7016;48.172;8.058;2022-12-18T04:18:29;23.20;;;10.73;;
13891;SDS011;7016;48.172;8.058;2022-12-18T04:20:55;25.27;;;10.88;;
13891;SDS011;7016;48.172;8.058;2022-12-18T04:23:21;22.58;;;10.55;;
13891;SDS011;7016;48.172;8.058;2022-12-18T04:25:47;23.20;;;11.23;;
13891;SDS011;7016;48.172;8.058;2022-12-18T04:28:13;25.42;;;11.10;;
13891;SDS011;7016;48.172;8.058;2022-12-18T04:30:38;24.85;;;11.55;;
13891;SDS011;7016;48.172;8.058;2022-12-18T04:33:07;24.50;;;11.23;;
13891;SDS011;7016;48.172;8.058;2022-12-18T04:35:37;23.13;;;11.43;;
13891;SDS011;7016;48.172;8.058;2022-12-18T04:38:04;24.10;;;10.63;;
13891;SDS011;7016;48.172;8.058;2022-12-18T04:40:35;26.90;;;12.30;;
13891;SDS011;7016;48.172;8.058;2022-12-18T04:43:01;23.70;;;11.02;;
13891;SDS011;7016;48.172;8.058;2022-12-18T04:45:27;25.90;;;11.82;;
13891;SDS011;7016;48.172;8.058;2022-12-18T04:47:53;24.40;;;11.43;;
13891;SDS011;7016;48.172;8.058;2022-12-18T04:50:19;26.40;;;11.77;;
13891;SDS011;7016;48.172;8.058;2022-12-18T04:52:44;25.90;;;10.90;;
13891;SDS011;7016;48.172;8.058;2022-12-18T04:55:10;24.38;;;11.35;;
13891;SDS011;7016;48.172;8.058;2022-12-18T04:57:36;22.98;;;11.07;;
13891;SDS011;7016;48.172;8.058;2022-12-18T05:00:02;22.58;;;11.55;;
13891;SDS011;7016;48.172;8.058;2022-12-18T05:02:28;24.92;;;11.38;;
13891;SDS011;7016;48.172;8.058;2022-12-18T05:04:54;24.98;;;10.77;;
13891;SDS011;7016;48.172;8.058;2022-12-18T05:07:20;24.15;;;11.30;;
13891;SDS011;7016;48.172;8.058;2022-12-18T05:09:45;24.52;;;11.10;;
13891;SDS011;7016;48.172;8.058;2022-12-18T05:12:11;24.83;;;11.43;;
13891;SDS011;7016;48.172;8.058;2022-12-18T05:14:37;27.67;;;11.90;;
13891;SDS011;7016;48.172;8.058;2022-12-18T05:17:02;23.08;;;10.98;;
13891;SDS011;7016;48.172;8.058;2022-12-18T05:19:28;23.13;;;10.88;;
13891;SDS011;7016;48.172;8.058;2022-12-18T05:21:54;22.38;;;10.77;;
13891;SDS011;7016;48.172;8.058;2022-12-18T05:24:19;25.20;;;11.18;;
13891;SDS011;7016;48.172;8.058;2022-12-18T05:26:45;25.98;;;10.98;;
13891;SDS011;7016;48.172;8.058;2022-12-18T05:29:11;26.35;;;11.40;;
13891;SDS011;7016;48.172;8.058;2022-12-18T05:31:37;26.70;;;10.98;;
13891;SDS011;7016;48.172;8.058;2022-12-18T05:34:03;24.63;;;11.27;;
13891;SDS011;7016;48.172;8.058;2022-12-18T05:36:29;23.25;;;10.27;;
13891;SDS011;7016;48.172;8.058;2022-12-18T05:38:55;25.23;;;11.32;;
13891;SDS011;7016;48.172;8.058;2022-12-18T05:41:21;24.98;;;11.27;;
13891;SDS011;7016;48.172;8.058;2022-12-18T05:43:46;23.00;;;10.70;;
13891;SDS011;7016;48.172;8.058;2022-12-18T05:46:13;25.58;;;11.18;;
13891;SDS011;7016;48.172;8.058;2022-12-18T05:48:41;20.95;;;10.80;;
13891;SDS011;7016;48.172;8.058;2022-12-18T05:51:08;29.08;;;11.85;;
13891;SDS011;7016;48.172;8.058;2022-12-18T05:53:36;31.95;;;12.30;;
13891;SDS011;7016;48.172;8.058;2022-12-18T05:56:02;27.88;;;11.00;;
13891;SDS011;7016;48.172;8.058;2022-12-18T05:58:30;22.27;;;10.07;;
13891;SDS011;7016;48.172;8.058;2022-12-18T06:00:56;22.98;;;10.90;;
13891;SDS011;7016;48.172;8.058;2022-12-18T06:03:23;22.20;;;10.75;;
13891;SDS011;7016;48.172;8.058;2022-12-18T06:05:49;24.73;;;10.07;;
13891;SDS011;7016;48.172;8.058;2022-12-18T06:08:15;26.10;;;10.40;;
13891;SDS011;7016;48.172;8.058;2022-12-18T06:10:41;23.85;;;11.07;;
13891;SDS011;7016;48.172;8.058;2022-12-18T06:13:07;26.20;;;11.38;;
13891;SDS011;7016;48.172;8.058;2022-12-18T06:15:35;27.20;;;11.75;;
13891;SDS011;7016;48.172;8.058;2022-12-18T06:18:02;25.23;;;11.48;;
13891;SDS011;7016;48.172;8.058;2022-12-18T06:20:28;30.10;;;12.25;;
13891;SDS011;7016;48.172;8.058;2022-12-18T06:22:54;25.73;;;11.70;;
13891;SDS011;7016;48.172;8.058;2022-12-18T06:25:19;27.10;;;11.82;;
13891;SDS011;7016;48.172;8.058;2022-12-18T06:27:47;22.02;;;10.20;;
13891;SDS011;7016;48.172;8.058;2022-12-18T06:30:13;23.25;;;10.73;;
13891;SDS011;7016;48.172;8.058;2022-12-18T06:32:39;28.63;;;12.90;;
13891;SDS011;7016;48.172;8.058;2022-12-18T06:35:05;26.45;;;12.38;;
13891;SDS011;7016;48.172;8.058;2022-12-18T06:37:31;26.27;;;12.15;;
13891;SDS011;7016;48.172;8.058;2022-12-18T06:39:57;27.15;;;12.80;;
13891;SDS011;7016;48.172;8.058;2022-12-18T06:42:23;27.38;;;12.80;;
13891;SDS011;7016;48.172;8.058;2022-12-18T06:44:49;28.77;;;11.45;;
13891;SDS011;7016;48.172;8.058;2022-12-18T06:47:15;36.10;;;17.15;;
13891;SDS011;7016;48.172;8.058;2022-12-18T06:49:40;30.08;;;15.02;;
13891;SDS011;7016;48.172;8.058;2022-12-18T06:52:06;31.88;;;13.02;;
13891;SDS011;7016;48.172;8.058;2022-12-18T06:54:32;31.35;;;11.52;;
13891;SDS011;7016;48.172;8.058;2022-12-18T06:56:58;24.95;;;10.82;;
13891;SDS011;7016;48.172;8.058;2022-12-18T06:59:24;24.88;;;10.73;;
13891;SDS011;7016;48.172;8.058;2022-12-18T07:01:49;25.60;;;11.45;;
13891;SDS011;7016;48.172;8.058;2022-12-18T07:04:15;23.13;;;11.05;;
13891;SDS011;7016;48.172;8.058;2022-12-18T07:06:41;25.80;;;11.02;;
13891;SDS011;7016;48.172;8.058;2022-12-18T07:09:07;28.25;;;11.90;;
13891;SDS011;7016;48.172;8.058;2022-12-18T07:11:33;23.40;;;10.80;;
13891;SDS011;7016;48.172;8.058;2022-12-18T07:13:59;26.80;;;12.10;;
13891;SDS011;7016;48.172;8.058;2022-12-18T07:16:25;26.75;;;11.95;;
13891;SDS011;7016;48.172;8.058;2022-12-18T07:18:51;31.63;;;13.32;;
13891;SDS011;7016;48.172;8.058;2022-12-18T07:21:18;23.60;;;11.02;;
13891;SDS011;7016;48.172;8.058;2022-12-18T07:23:44;26.83;;;10.23;;
13891;SDS011;7016;48.172;8.058;2022-12-18T07:26:13;32.88;;;15.57;;
13891;SDS011;7016;48.172;8.058;2022-12-18T07:28:40;35.90;;;13.00;;
13891;SDS011;7016;48.172;8.058;2022-12-18T07:31:11;31.80;;;13.77;;
13891;SDS011;7016;48.172;8.058;2022-12-18T07:33:39;26.97;;;12.17;;
13891;SDS011;7016;48.172;8.058;2022-12-18T07:36:06;30.88;;;14.15;;
13891;SDS011;7016;48.172;8.058;2022-12-18T07:38:34;23.80;;;11.60;;
13891;SDS011;7016;48.172;8.058;2022-12-18T07:41:01;21.27;;;10.40;;
13891;SDS011;7016;48.172;8.058;2022-12-18T07:43:28;28.95;;;11.32;;
13891;SDS011;7016;48.172;8.058;2022-12-18T07:45:53;24.30;;;10.77;;
13891;SDS011;7016;48.172;8.058;2022-12-18T07:48:19;21.48;;;10.38;;
13891;SDS011;7016;48.172;8.058;2022-12-18T07:50:45;25.45;;;10.18;;
13891;SDS011;7016;48.172;8.058;2022-12-18T07:53:11;32.55;;;14.38;;
13891;SDS011;7016;48.172;8.058;2022-12-18T07:55:36;31.67;;;14.32;;
13891;SDS011;7016;48.172;8.058;2022-12-18T07:58:03;29.15;;;13.00;;
13891;SDS011;7016;48.172;8.058;2022-12-18T08:00:30;22.48;;;11.10;;
13891;SDS011;7016;48.172;8.058;2022-12-18T08:02:56;21.38;;;9.48;;
13891;SDS011;7016;48.172;8.058;2022-12-18T08:05:22;22.08;;;10.30;;
13891;SDS011;7016;48.172;8.058;2022-12-18T08:07:48;27.77;;;13.07;;
13891;SDS011;7016;48.172;8.058;2022-12-18T08:10:14;37.00;;;13.77;;
13891;SDS011;7016;48.172;8.058;2022-12-18T08:12:40;20.15;;;10.95;;
13891;SDS011;7016;48.172;8.058;2022-12-18T08:15:06;22.08;;;10.75;;
13891;SDS011;7016;48.172;8.058;2022-12-18T08:17:32;22.45;;;9.82;;
13891;SDS011;7016;48.172;8.058;2022-12-18T08:19:58;27.42;;;12.80;;
13891;SDS011;7016;48.172;8.058;2022-12-18T08:22:24;25.45;;;9.85;;
13891;SDS011;7016;48.172;8.058;2022-12-18T08:24:49;25.63;;;10.93;;
13891;SDS011;7016;48.172;8.058;2022-12-18T08:27:15;23.52;;;11.10;;
13891;SDS011;7016;48.172;8.058;2022-12-18T08:29:41;26.50;;;11.43;;
13891;SDS011;7016;48.172;8.058;2022-12-18T08:32:07;35.85;;;15.82;;
13891;SDS011;7016;48.172;8.058;2022-12-18T08:34:33;24.75;;;10.38;;
13891;SDS011;7016;48.172;8.058;2022-12-18T08:36:58;25.30;;;11.25;;
13891;SDS011;7016;48.172;8.058;2022-12-18T08:39:24;25.20;;;10.15;;
13891;SDS011;7016;48.172;8.058;2022-12-18T08:41:50;27.77;;;11.98;;
13891;SDS011;7016;48.172;8.058;2022-12-18T08:44:34;33.70;;;13.82;;
13891;SDS011;7016;48.172;8.058;2022-12-18T08:47:03;42.88;;;15.57;;
13891;SDS011;7016;48.172;8.058;2022-12-18T08:49:30;40.15;;;16.88;;
13891;SDS011;7016;48.172;8.058;2022-12-18T08:51:56;50.38;;;20.08;;
13891;SDS011;7016;48.172;8.058;2022-12-18T08:54:24;52.70;;;20.92;;
13891;SDS011;7016;48.172;8.058;2022-12-18T08:56:51;52.10;;;19.70;;
13891;SDS011;7016;48.172;8.058;2022-12-18T08:59:17;48.35;;;18.25;;
13891;SDS011;7016;48.172;8.058;2022-12-18T09:01:43;44.17;;;17.42;;
13891;SDS011;7016;48.172;8.058;2022-12-18T09:04:10;50.10;;;19.23;;
13891;SDS011;7016;48.172;8.058;2022-12-18T09:06:36;46.95;;;17.67;;
13891;SDS011;7016;48.172;8.058;2022-12-18T09:09:03;42.05;;;17.90;;
13891;SDS011;7016;48.172;8.058;2022-12-18T09:11:30;44.67;;;18.77;;
13891;SDS011;7016;48.172;8.058;2022-12-18T09:13:57;41.17;;;17.55;;
13891;SDS011;7016;48.172;8.058;2022-12-18T09:16:23;44.58;;;17.70;;
13891;SDS011;7016;48.172;8.058;2022-12-18T09:18:50;38.80;;;16.38;;
13891;SDS011;7016;48.172;8.058;2022-12-18T09:21:18;39.25;;;17.85;;
13891;SDS011;7016;48.172;8.058;2022-12-18T09:23:55;39.53;;;16.17;;
13891;SDS011;7016;48.172;8.058;2022-12-18T09:26:22;43.05;;;18.52;;
13891;SDS011;7016;48.172;8.058;2022-12-18T09:28:48;41.28;;;18.48;;
13891;SDS011;7016;48.172;8.058;2022-12-18T09:31:16;41.70;;;18.85;;
13891;SDS011;7016;48.172;8.058;2022-12-18T09:33:43;46.03;;;19.52;;
13891;SDS011;7016;48.172;8.058;2022-12-18T09:36:11;39.75;;;18.08;;
13891;SDS011;7016;48.172;8.058;2022-12-18T09:38:38;42.95;;;18.10;;
13891;SDS011;7016;48.172;8.058;2022-12-18T09:41:05;39.78;;;17.77;;
13891;SDS011;7016;48.172;8.058;2022-12-18T09:43:45;41.08;;;18.48;;
13891;SDS011;7016;48.172;8.058;2022-12-18T09:46:49;40.70;;;19.00;;
13891;SDS011;7016;48.172;8.058;2022-12-18T09:49:14;47.67;;;20.25;;
13891;SDS011;7016;48.172;8.058;2022-12-18T09:51:51;51.78;;;23.15;;
13891;SDS011;7016;48.172;8.058;2022-12-18T09:54:43;59.90;;;24.13;;
13891;SDS011;7016;48.172;8.058;2022-12-18T09:57:18;58.00;;;23.98;;
13891;SDS011;7016;48.172;8.058;2022-12-18T09:59:47;67.88;;;24.55;;
13891;SDS011;7016;48.172;8.058;2022-12-18T10:02:22;57.40;;;25.75;;
13891;SDS011;7016;48.172;8.058;2022-12-18T10:04:53;64.47;;;27.75;;
13891;SDS011;7016;48.172;8.058;2022-12-18T10:07:29;76.47;;;28.48;;
13891;SDS011;7016;48.172;8.058;2022-12-18T10:10:18;68.80;;;28.00;;
13891;SDS011;7016;48.172;8.058;2022-12-18T10:26:52;74.28;;;29.98;;
13891;SDS011;7016;48.172;8.058;2022-12-18T10:29:21;69.25;;;26.60;;
13891;SDS011;7016;48.172;8.058;2022-12-18T10:31:47;66.57;;;25.15;;
13891;SDS011;7016;48.172;8.058;2022-12-18T10:34:13;77.05;;;28.80;;
13891;SDS011;7016;48.172;8.058;2022-12-18T10:36:39;80.22;;;31.95;;
13891;SDS011;7016;48.172;8.058;2022-12-18T10:39:22;84.78;;;30.77;;
13891;SDS011;7016;48.172;8.058;2022-12-18T10:41:51;64.65;;;27.00;;
13891;SDS011;7016;48.172;8.058;2022-12-18T10:44:23;66.68;;;27.38;;
13891;SDS011;7016;48.172;8.058;2022-12-18T10:47:02;65.32;;;28.50;;
13891;SDS011;7016;48.172;8.058;2022-12-18T10:49:30;58.88;;;27.23;;
13891;SDS011;7016;48.172;8.058;2022-12-18T10:52:05;60.50;;;26.98;;
13891;SDS011;7016;48.172;8.058;2022-12-18T10:54:31;63.10;;;27.83;;
13891;SDS011;7016;48.172;8.058;2022-12-18T10:57:28;59.97;;;27.83;;
13891;SDS011;7016;48.172;8.058;2022-12-18T10:59:56;61.83;;;26.50;;
13891;SDS011;7016;48.172;8.058;2022-12-18T11:02:25;63.75;;;27.65;;
13891;SDS011;7016;48.172;8.058;2022-12-18T11:04:58;64.43;;;28.80;;
13891;SDS011;7016;48.172;8.058;2022-12-18T11:07:23;63.08;;;27.65;;
13891;SDS011;7016;48.172;8.058;2022-12-18T11:09:59;60.65;;;27.70;;
13891;SDS011;7016;48.172;8.058;2022-12-18T11:12:26;59.38;;;26.33;;
13891;SDS011;7016;48.172;8.058;2022-12-18T11:14:54;63.88;;;28.15;;
13891;SDS011;7016;48.172;8.058;2022-12-18T11:17:29;68.85;;;28.90;;
13891;SDS011;7016;48.172;8.058;2022-12-18T11:20:04;69.13;;;30.42;;
13891;SDS011;7016;48.172;8.058;2022-12-18T11:22:33;63.67;;;29.20;;
13891;SDS011;7016;48.172;8.058;2022-12-18T11:25:05;64.53;;;29.48;;
13891;SDS011;7016;48.172;8.058;2022-12-18T11:31:12;56.67;;;26.55;;
13891;SDS011;7016;48.172;8.058;2022-12-18T11:33:44;67.80;;;31.25;;
13891;SDS011;7016;48.172;8.058;2022-12-18T11:36:20;74.65;;;30.63;;
13891;SDS011;7016;48.172;8.058;2022-12-18T11:38:47;77.47;;;31.73;;
13891;SDS011;7016;48.172;8.058;2022-12-18T11:41:37;64.22;;;29.73;;
13891;SDS011;7016;48.172;8.058;2022-12-18T11:49:37;80.75;;;31.90;;
13891;SDS011;7016;48.172;8.058;2022-12-18T11:54:39;83.30;;;34.60;;
13891;SDS011;7016;48.172;8.058;2022-12-18T12:10:51;71.57;;;30.77;;
13891;SDS011;7016;48.172;8.058;2022-12-18T12:21:45;66.57;;;29.63;;
13891;SDS011;7016;48.172;8.058;2022-12-18T12:24:26;87.30;;;32.42;;
13891;SDS011;7016;48.172;8.058;2022-12-18T12:30:06;93.22;;;34.72;;
13891;SDS011;7016;48.172;8.058;2022-12-18T12:32:45;87.00;;;32.45;;
13891;SDS011;7016;48.172;8.058;2022-12-18T12:37:47;80.53;;;31.50;;
13891;SDS011;7016;48.172;8.058;2022-12-18T12:40:20;75.63;;;32.15;;
13891;SDS011;7016;48.172;8.058;2022-12-18T12:42:53;70.43;;;32.65;;
13891;SDS011;7016;48.172;8.058;2022-12-18T12:51:01;83.78;;;34.72;;
13891;SDS011;7016;48.172;8.058;2022-12-18T12:53:34;90.97;;;35.63;;
13891;SDS011;7016;48.172;8.058;2022-12-18T12:56:03;76.43;;;33.65;;
13891;SDS011;7016;48.172;8.058;2022-12-18T13:01:41;82.18;;;35.17;;
13891;SDS011;7016;48.172;8.058;2022-12-18T13:04:41;83.10;;;34.72;;
13891;SDS011;7016;48.172;8.058;2022-12-18T13:07:16;91.03;;;34.00;;
13891;SDS011;7016;48.172;8.058;2022-12-18T13:10:24;148.75;;;46.83;;
13891;SDS011;7016;48.172;8.058;2022-12-18T13:18:11;111.43;;;40.20;;
13891;SDS011;7016;48.172;8.058;2022-12-18T13:20:41;83.78;;;34.40;;
13891;SDS011;7016;48.172;8.058;2022-12-18T13:25:49;82.97;;;30.05;;
13891;SDS011;7016;48.172;8.058;2022-12-18T13:28:22;62.33;;;27.65;;
13891;SDS011;7016;48.172;8.058;2022-12-18T13:30:57;63.33;;;27.42;;
13891;SDS011;7016;48.172;8.058;2022-12-18T13:38:40;56.58;;;25.70;;
13891;SDS011;7016;48.172;8.058;2022-12-18T13:46:19;54.75;;;25.65;;
13891;SDS011;7016;48.172;8.058;2022-12-18T13:51:24;66.78;;;27.30;;
13891;SDS011;7016;48.172;8.058;2022-12-18T13:53:52;52.30;;;24.40;;
13891;SDS011;7016;48.172;8.058;2022-12-18T13:56:24;54.95;;;26.00;;
13891;SDS011;7016;48.172;8.058;2022-12-18T13:59:12;54.85;;;25.20;;
13891;SDS011;7016;48.172;8.058;2022-12-18T14:01:58;81.72;;;29.05;;
13891;SDS011;7016;48.172;8.058;2022-12-18T14:04:29;58.78;;;24.80;;
13891;SDS011;7016;48.172;8.058;2022-12-18T14:07:18;58.08;;;24.60;;
13891;SDS011;7016;48.172;8.058;2022-12-18T14:09:50;62.40;;;26.10;;
13891;SDS011;7016;48.172;8.058;2022-12-18T14:12:22;54.15;;;24.02;;
13891;SDS011;7016;48.172;8.058;2022-12-18T14:15:31;60.22;;;25.48;;
13891;SDS011;7016;48.172;8.058;2022-12-18T14:18:01;70.80;;;27.80;;
13891;SDS011;7016;48.172;8.058;2022-12-18T14:20:49;58.08;;;24.73;;
13891;SDS011;7016;48.172;8.058;2022-12-18T14:25:59;55.65;;;23.85;;
13891;SDS011;7016;48.172;8.058;2022-12-18T14:28:26;54.00;;;23.55;;
13891;SDS011;7016;48.172;8.058;2022-12-18T14:30:52;51.85;;;22.88;;
13891;SDS011;7016;48.172;8.058;2022-12-18T14:33:23;50.95;;;23.25;;
13891;SDS011;7016;48.172;8.058;2022-12-18T14:41:03;54.50;;;25.20;;
13891;SDS011;7016;48.172;8.058;2022-12-18T14:43:34;42.40;;;20.60;;
13891;SDS011;7016;48.172;8.058;2022-12-18T14:46:01;54.05;;;22.17;;
13891;SDS011;7016;48.172;8.058;2022-12-18T14:48:36;40.08;;;18.73;;
13891;SDS011;7016;48.172;8.058;2022-12-18T14:51:20;39.40;;;19.88;;
13891;SDS011;7016;48.172;8.058;2022-12-18T14:53:52;39.78;;;19.88;;
13891;SDS011;7016;48.172;8.058;2022-12-18T14:58:51;43.80;;;19.45;;
13891;SDS011;7016;48.172;8.058;2022-12-18T15:01:38;41.17;;;19.73;;
13891;SDS011;7016;48.172;8.058;2022-12-18T15:04:31;40.03;;;20.05;;
13891;SDS011;7016;48.172;8.058;2022-12-18T15:09:36;39.72;;;19.23;;
13891;SDS011;7016;48.172;8.058;2022-12-18T15:12:03;44.83;;;19.70;;
13891;SDS011;7016;48.172;8.058;2022-12-18T15:16:55;40.00;;;19.73;;
13891;SDS011;7016;48.172;8.058;2022-12-18T15:19:31;41.00;;;19.38;;
13891;SDS011;7016;48.172;8.058;2022-12-18T15:22:00;39.00;;;19.55;;
13891;SDS011;7016;48.172;8.058;2022-12-18T15:24:27;35.85;;;18.88;;
13891;SDS011;7016;48.172;8.058;2022-12-18T15:26:56;37.08;;;18.40;;
13891;SDS011;7016;48.172;8.058;2022-12-18T15:29:22;40.10;;;19.20;;
13891;SDS011;7016;48.172;8.058;2022-12-18T15:31:57;43.72;;;20.10;;
13891;SDS011;7016;48.172;8.058;2022-12-18T15:34:28;43.35;;;20.60;;
13891;SDS011;7016;48.172;8.058;2022-12-18T15:36:54;41.42;;;19.83;;
13891;SDS011;7016;48.172;8.058;2022-12-18T15:39:20;44.25;;;21.08;;
13891;SDS011;7016;48.172;8.058;2022-12-18T15:41:46;46.63;;;20.60;;
13891;SDS011;7016;48.172;8.058;2022-12-18T15:44:30;43.42;;;21.73;;
13891;SDS011;7016;48.172;8.058;2022-12-18T15:46:56;53.78;;;24.92;;
13891;SDS011;7016;48.172;8.058;2022-12-18T15:49:23;46.65;;;22.50;;
13891;SDS011;7016;48.172;8.058;2022-12-18T15:51:50;49.53;;;24.27;;
13891;SDS011;7016;48.172;8.058;2022-12-18T15:54:18;46.97;;;23.08;;
13891;SDS011;7016;48.172;8.058;2022-12-18T15:57:08;47.33;;;22.05;;
13891;SDS011;7016;48.172;8.058;2022-12-18T15:59:49;53.15;;;25.73;;
13891;SDS011;7016;48.172;8.058;2022-12-18T16:02:17;41.97;;;20.55;;
13891;SDS011;7016;48.172;8.058;2022-12-18T16:04:44;40.45;;;19.33;;
13891;SDS011;7016;48.172;8.058;2022-12-18T16:07:11;42.33;;;20.65;;
13891;SDS011;7016;48.172;8.058;2022-12-18T16:09:37;54.13;;;24.73;;
13891;SDS011;7016;48.172;8.058;2022-12-18T16:12:04;53.42;;;24.45;;
13891;SDS011;7016;48.172;8.058;2022-12-18T16:14:50;51.78;;;23.85;;
13891;SDS011;7016;48.172;8.058;2022-12-18T16:17:16;59.17;;;28.30;;
13891;SDS011;7016;48.172;8.058;2022-12-18T16:19:42;58.70;;;27.50;;
13891;SDS011;7016;48.172;8.058;2022-12-18T16:22:15;58.65;;;26.95;;
13891;SDS011;7016;48.172;8.058;2022-12-18T16:24:47;63.70;;;30.48;;
13891;SDS011;7016;48.172;8.058;2022-12-18T16:27:14;64.85;;;32.25;;
13891;SDS011;7016;48.172;8.058;2022-12-18T16:29:39;68.28;;;32.78;;
13891;SDS011;7016;48.172;8.058;2022-12-18T16:32:05;62.85;;;30.23;;
13891;SDS011;7016;48.172;8.058;2022-12-18T16:34:32;77.43;;;37.10;;
13891;SDS011;7016;48.172;8.058;2022-12-18T16:37:00;69.43;;;33.70;;
13891;SDS011;7016;48.172;8.058;2022-12-18T16:39:28;53.33;;;25.90;;
13891;SDS011;7016;48.172;8.058;2022-12-18T16:41:55;61.17;;;29.65;;
13891;SDS011;7016;48.172;8.058;2022-12-18T16:44:21;61.72;;;30.33;;
13891;SDS011;7016;48.172;8.058;2022-12-18T16:46:47;58.15;;;29.27;;
13891;SDS011;7016;48.172;8.058;2022-12-18T16:49:14;57.20;;;29.13;;
13891;SDS011;7016;48.172;8.058;2022-12-18T16:51:40;58.67;;;28.85;;
13891;SDS011;7016;48.172;8.058;2022-12-18T16:54:06;52.53;;;25.50;;
13891;SDS011;7016;48.172;8.058;2022-12-18T16:56:32;60.35;;;29.00;;
13891;SDS011;7016;48.172;8.058;2022-12-18T16:58:59;63.85;;;31.92;;